createdAt,value
2024-01-05T00:01:30.302Z,53.01
2024-01-05T00:03:33.408Z,52.58
2024-01-05T00:05:37.097Z,52.45
2024-01-05T00:07:41.399Z,52.63
2024-01-05T00:09:44.282Z,52.59
2024-01-05T00:11:48.313Z,52.67
2024-01-05T00:13:51.251Z,52.29
2024-01-05T00:15:54.340Z,52.46
2024-01-05T00:17:58.215Z,52.32
2024-01-05T00:20:01.360Z,52.34
2024-01-05T00:22:04.316Z,52.35
2024-01-05T00:24:08.968Z,52.08
2024-01-05T00:26:11.814Z,52.00
2024-01-05T00:28:15.013Z,51.84
2024-01-05T00:30:18.145Z,52.07
2024-01-05T00:32:21.091Z,51.81
2024-01-05T00:34:24.031Z,52.00
2024-01-05T00:36:26.998Z,51.77
2024-01-05T00:38:28.951Z,51.63
2024-01-05T00:40:33.204Z,51.76
2024-01-05T00:42:36.236Z,51.73
2024-01-05T00:44:39.182Z,51.72
2024-01-05T00:46:42.315Z,52.12
2024-01-05T00:48:44.495Z,51.67
2024-01-05T00:50:47.713Z,51.39
2024-01-05T00:52:50.868Z,51.51
2024-01-05T00:54:54.010Z,51.74
2024-01-05T00:56:58.294Z,51.99
2024-01-05T00:59:01.182Z,51.59
2024-01-05T01:01:04.831Z,51.67
2024-01-05T01:03:08.223Z,51.62
2024-01-05T01:05:12.124Z,51.62
2024-01-05T01:07:14.756Z,51.65
2024-01-05T01:09:18.033Z,51.56
2024-01-05T01:11:23.315Z,51.82
2024-01-05T01:13:29.451Z,51.34
2024-01-05T01:15:31.578Z,51.64
2024-01-05T01:17:34.825Z,51.61
2024-01-05T01:19:37.724Z,51.51
2024-01-05T01:21:40.731Z,51.59
2024-01-05T01:23:43.700Z,51.27
2024-01-05T01:25:45.806Z,51.74
2024-01-05T01:27:48.678Z,51.71
2024-01-05T01:29:52.699Z,52.09
2024-01-05T01:31:54.621Z,52.07
2024-01-05T01:33:58.399Z,51.81
2024-01-05T01:36:00.948Z,51.90
2024-01-05T01:38:04.031Z,52.01
2024-01-05T01:40:07.767Z,52.34
2024-01-05T01:42:10.660Z,52.34
2024-01-05T01:44:13.664Z,52.38
2024-01-05T01:46:18.291Z,52.51
2024-01-05T01:48:21.183Z,52.06
2024-01-05T01:50:25.989Z,52.19
2024-01-05T01:52:29.402Z,52.59
2024-01-05T01:54:34.688Z,52.35
2024-01-05T01:56:39.722Z,52.30
2024-01-05T01:58:45.612Z,52.23
2024-01-05T02:00:49.022Z,51.92
2024-01-05T02:02:55.749Z,51.84
2024-01-05T02:04:59.514Z,52.14
2024-01-05T02:07:03.493Z,51.95
2024-01-05T02:09:07.177Z,52.05
2024-01-05T02:11:10.070Z,51.72
2024-01-05T02:13:13.081Z,51.88
2024-01-05T02:15:16.023Z,51.60
2024-01-05T02:17:32.576Z,51.43
2024-01-05T02:19:37.104Z,51.63
2024-01-05T02:21:44.234Z,51.77
2024-01-05T02:23:47.515Z,51.43
2024-01-05T02:25:50.559Z,51.31
2024-01-05T02:27:53.398Z,51.64
2024-01-05T02:29:55.361Z,51.31
2024-01-05T02:31:58.465Z,51.27
2024-01-05T02:34:02.183Z,51.15
2024-01-05T02:36:05.648Z,51.51
2024-01-05T02:38:08.923Z,51.15
2024-01-05T02:40:14.652Z,51.11
2024-01-05T02:42:16.710Z,50.97
2024-01-05T02:44:19.717Z,51.03
2024-01-05T02:46:21.894Z,50.92
2024-01-05T02:48:24.924Z,50.78
2024-01-05T02:50:27.836Z,50.54
2024-01-05T02:52:29.702Z,50.60
2024-01-05T02:54:32.710Z,50.88
2024-01-05T02:56:37.623Z,50.86
2024-01-05T02:58:40.122Z,50.84
2024-01-05T03:00:43.163Z,50.71
2024-01-05T03:02:46.146Z,50.68
2024-01-05T03:04:48.223Z,50.51
2024-01-05T03:06:51.151Z,50.66
2024-01-05T03:08:54.237Z,50.67
2024-01-05T03:10:57.764Z,50.64
2024-01-05T03:13:02.085Z,50.36
2024-01-05T03:15:04.634Z,50.20
2024-01-05T03:17:07.864Z,50.58
2024-01-05T03:19:11.739Z,50.19
2024-01-05T03:21:15.030Z,50.23
2024-01-05T03:23:17.975Z,50.41
2024-01-05T03:25:20.873Z,50.36
2024-01-05T03:27:22.740Z,50.15
2024-01-05T03:29:27.092Z,50.18
2024-01-05T03:31:30.124Z,50.10
2024-01-05T03:33:32.307Z,50.05
2024-01-05T03:35:35.364Z,50.21
2024-01-05T03:37:38.245Z,50.30
2024-01-05T03:39:41.442Z,49.92
2024-01-05T03:41:44.385Z,49.95
2024-01-05T03:43:47.289Z,49.79
2024-01-05T03:45:50.588Z,50.21
2024-01-05T03:47:53.532Z,49.82
2024-01-05T03:49:56.606Z,49.77
2024-01-05T03:51:59.568Z,49.76
2024-01-05T03:54:02.450Z,49.50
2024-01-05T03:56:05.860Z,49.74
2024-01-05T03:58:09.033Z,49.55
2024-01-05T04:00:13.216Z,49.29
2024-01-05T04:02:17.518Z,49.29
2024-01-05T04:04:20.753Z,49.52
2024-01-05T04:06:23.720Z,49.52
2024-01-05T04:08:26.829Z,49.10
2024-01-05T04:10:29.699Z,49.28
2024-01-05T04:12:53.242Z,49.24
2024-01-05T04:15:16.334Z,49.01
2024-01-05T04:17:20.568Z,49.13
2024-01-05T04:19:23.892Z,49.33
2024-01-05T04:21:27.118Z,49.20
2024-01-05T04:23:30.268Z,48.87
2024-01-05T04:25:33.671Z,49.19
2024-01-05T04:27:35.739Z,49.24
2024-01-05T04:29:39.860Z,48.90
2024-01-05T04:31:42.864Z,49.23
2024-01-05T04:33:47.774Z,49.23
2024-01-05T04:35:49.829Z,49.22
2024-01-05T04:37:52.709Z,48.96
2024-01-05T04:39:55.697Z,48.97
2024-01-05T04:41:58.657Z,49.05
2024-01-05T04:44:01.557Z,48.83
2024-01-05T04:46:06.108Z,48.89
2024-01-05T04:48:09.521Z,48.89
2024-01-05T04:50:13.880Z,49.31
2024-01-05T04:52:17.096Z,49.01
2024-01-05T04:54:20.000Z,49.26
2024-01-05T04:56:22.932Z,48.91
2024-01-05T04:58:26.233Z,49.12
2024-01-05T05:00:29.230Z,49.06
2024-01-05T05:02:32.123Z,49.31
2024-01-05T05:04:35.118Z,49.39
2024-01-05T05:06:39.406Z,49.43
2024-01-05T05:08:42.325Z,49.25
2024-01-05T05:10:45.454Z,49.21
2024-01-05T05:12:48.373Z,49.26
2024-01-05T05:14:51.253Z,49.28
2024-01-05T05:16:54.763Z,49.20
2024-01-05T05:18:57.783Z,49.41
2024-01-05T05:21:00.910Z,49.38
2024-01-05T05:23:05.546Z,49.39
2024-01-05T05:25:09.075Z,49.61
2024-01-05T05:27:11.943Z,49.31
2024-01-05T05:29:14.561Z,49.62
2024-01-05T05:31:17.747Z,49.52
2024-01-05T05:33:20.646Z,49.45
2024-01-05T05:35:24.733Z,49.65
2024-01-05T05:37:27.832Z,49.68
2024-01-05T05:39:31.076Z,49.53
2024-01-05T05:41:34.212Z,49.40
2024-01-05T05:43:37.090Z,49.55
2024-01-05T05:45:40.086Z,49.33
2024-01-05T05:47:43.153Z,49.38
2024-01-05T05:49:46.217Z,49.47
2024-01-05T05:51:49.212Z,49.43
2024-01-05T05:53:52.221Z,49.84
2024-01-05T05:55:56.548Z,49.69
2024-01-05T05:58:00.449Z,49.68
2024-01-05T06:00:06.249Z,49.88
2024-01-05T06:02:09.244Z,50.18
2024-01-05T06:04:12.650Z,49.92
2024-01-05T06:06:20.145Z,50.20
2024-01-05T06:08:23.183Z,49.96
2024-01-05T06:10:25.289Z,50.42
2024-01-05T06:12:29.629Z,50.19
2024-01-05T06:14:32.492Z,50.21
2024-01-05T06:16:35.377Z,50.56
2024-01-05T06:18:39.043Z,50.43
2024-01-05T06:20:42.296Z,50.35
2024-01-05T06:22:44.342Z,50.57
2024-01-05T06:24:47.538Z,50.24
2024-01-05T06:26:49.411Z,50.54
2024-01-05T06:28:53.934Z,50.62
2024-01-05T06:30:56.983Z,50.52
2024-01-05T06:33:00.526Z,50.70
2024-01-05T06:35:04.451Z,50.39
2024-01-05T06:37:07.266Z,50.52
2024-01-05T06:39:10.430Z,50.47
2024-01-05T06:41:13.321Z,50.78
2024-01-05T06:43:16.239Z,50.54
2024-01-05T06:45:20.479Z,50.94
2024-01-05T06:47:23.384Z,50.87
2024-01-05T06:49:26.586Z,50.60
2024-01-05T06:51:31.397Z,51.02
2024-01-05T06:53:34.573Z,50.93
2024-01-05T06:55:37.458Z,50.64
2024-01-05T06:57:39.293Z,50.86
2024-01-05T06:59:42.233Z,51.00
2024-01-05T07:01:46.649Z,51.14
2024-01-05T07:03:49.952Z,51.05
2024-01-05T07:05:52.869Z,51.37
2024-01-05T07:07:55.763Z,51.23
2024-01-05T07:09:58.671Z,51.19
2024-01-05T07:12:01.768Z,51.59
2024-01-05T07:14:04.683Z,51.52
2024-01-05T07:16:17.018Z,51.52
2024-01-05T07:18:21.294Z,51.44
2024-01-05T07:20:24.173Z,51.69
2024-01-05T07:22:27.291Z,51.91
2024-01-05T07:24:30.574Z,51.62
2024-01-05T07:26:33.871Z,51.97
2024-01-05T07:28:36.656Z,51.83
2024-01-05T07:30:39.907Z,51.97
2024-01-05T07:32:42.864Z,51.96
2024-01-05T07:34:47.863Z,52.20
2024-01-05T07:36:51.720Z,52.05
2024-01-05T07:38:54.586Z,52.27
2024-01-05T07:40:58.593Z,52.37
2024-01-05T07:43:00.403Z,52.31
2024-01-05T07:45:05.666Z,51.96
2024-01-05T07:47:10.621Z,52.23
2024-01-05T07:49:13.838Z,52.13
2024-01-05T07:51:21.310Z,52.08
2024-01-05T07:53:24.188Z,52.44
2024-01-05T07:55:27.052Z,52.12
2024-01-05T07:57:30.007Z,52.52
2024-01-05T07:59:33.195Z,52.66
2024-01-05T08:01:36.213Z,52.56
2024-01-05T08:03:40.061Z,52.38
2024-01-05T08:05:47.084Z,52.30
2024-01-05T08:07:51.912Z,52.76
2024-01-05T08:09:54.741Z,52.73
2024-01-05T08:11:57.576Z,52.68
2024-01-05T08:14:01.027Z,52.49
2024-01-05T08:16:03.024Z,52.92
2024-01-05T08:18:06.840Z,52.60
2024-01-05T08:20:11.979Z,52.91
2024-01-05T08:22:14.797Z,52.93
2024-01-05T08:24:19.133Z,52.81
2024-01-05T08:26:21.303Z,52.94
2024-01-05T08:28:24.124Z,53.13
2024-01-05T08:30:27.328Z,53.20
2024-01-05T08:32:29.474Z,52.86
2024-01-05T08:34:32.433Z,52.93
2024-01-05T08:36:36.203Z,53.08
2024-01-05T08:38:39.544Z,52.89
2024-01-05T08:40:43.790Z,53.30
2024-01-05T08:42:47.086Z,53.01
2024-01-05T08:44:51.605Z,53.02
2024-01-05T08:46:54.757Z,53.40
2024-01-05T08:48:58.245Z,53.10
2024-01-05T08:51:00.827Z,53.06
2024-01-05T08:53:03.647Z,53.29
2024-01-05T08:55:07.549Z,53.13
2024-01-05T08:57:12.486Z,53.19
2024-01-05T08:59:15.418Z,53.05
2024-01-05T09:01:18.408Z,53.11
2024-01-05T09:03:20.828Z,52.85
2024-01-05T09:05:24.055Z,52.91
2024-01-05T09:07:26.064Z,53.21
2024-01-05T09:09:29.069Z,53.01
2024-01-05T09:11:31.935Z,53.21
2024-01-05T09:13:39.176Z,53.00
2024-01-05T09:15:42.495Z,53.12
2024-01-05T09:17:45.403Z,53.10
2024-01-05T09:19:48.486Z,53.17
2024-01-05T09:21:51.473Z,53.27
2024-01-05T09:23:54.658Z,53.05
2024-01-05T09:25:58.374Z,52.98
2024-01-05T09:28:02.099Z,53.44
2024-01-05T09:30:07.865Z,52.99
2024-01-05T09:32:11.306Z,53.27
2024-01-05T09:34:14.818Z,53.36
2024-01-05T09:36:18.709Z,53.14
2024-01-05T09:38:20.967Z,53.39
2024-01-05T09:40:24.310Z,53.41
2024-01-05T09:42:28.400Z,53.13
2024-01-05T09:44:32.234Z,53.29
2024-01-05T09:46:40.157Z,53.05
2024-01-05T09:48:47.929Z,53.42
2024-01-05T09:50:56.287Z,53.57
2024-01-05T09:52:59.743Z,53.44
2024-01-05T09:55:02.581Z,53.68
2024-01-05T09:57:07.521Z,53.53
2024-01-05T09:59:10.342Z,53.68
2024-01-05T10:01:23.301Z,53.82
2024-01-05T10:03:27.956Z,54.16
2024-01-05T10:05:31.545Z,54.24
2024-01-05T10:07:42.360Z,54.07
2024-01-05T10:09:51.898Z,54.26
2024-01-05T10:11:56.058Z,54.08
2024-01-05T10:14:01.283Z,54.42
2024-01-05T10:16:05.979Z,54.43
2024-01-05T10:18:19.921Z,54.79
2024-01-05T10:20:29.511Z,54.57
2024-01-05T10:22:34.866Z,54.64
2024-01-05T10:24:37.893Z,54.72
2024-01-05T10:26:40.723Z,54.84
2024-01-05T10:28:42.674Z,54.84
2024-01-05T10:30:45.648Z,55.24
2024-01-05T10:32:47.717Z,55.36
2024-01-05T10:34:52.444Z,55.36
2024-01-05T10:37:04.621Z,55.32
2024-01-05T10:39:10.164Z,55.45
2024-01-05T10:41:14.186Z,55.62
2024-01-05T10:43:19.841Z,55.64
2024-01-05T10:45:21.919Z,55.44
2024-01-05T10:47:26.941Z,55.78
2024-01-05T10:49:31.602Z,55.76
2024-01-05T10:51:35.990Z,55.64
2024-01-05T10:53:40.388Z,55.83
2024-01-05T10:55:44.731Z,55.81
2024-01-05T10:57:48.000Z,55.61
2024-01-05T10:59:52.449Z,55.98
2024-01-05T11:01:55.410Z,55.60
2024-01-05T11:03:58.618Z,55.55
2024-01-05T11:06:02.381Z,55.86
2024-01-05T11:08:05.123Z,55.89
2024-01-05T11:10:22.099Z,55.96
2024-01-05T11:12:38.317Z,55.85
2024-01-05T11:14:54.260Z,55.70
2024-01-05T11:17:22.518Z,55.73
2024-01-05T11:19:54.703Z,55.66
2024-01-05T11:22:02.012Z,55.71
2024-01-05T11:24:06.130Z,55.79
2024-01-05T11:26:31.306Z,55.81
2024-01-05T11:28:38.202Z,55.61
2024-01-05T11:30:41.893Z,55.80
2024-01-05T11:32:46.975Z,56.01
2024-01-05T11:34:50.519Z,55.87
2024-01-05T11:36:57.179Z,56.03
2024-01-05T11:39:00.161Z,55.82
2024-01-05T11:41:19.156Z,56.13
2024-01-05T11:43:43.517Z,55.96
2024-01-05T11:45:49.944Z,56.02
2024-01-05T11:47:52.922Z,56.11
2024-01-05T11:49:54.914Z,56.31
2024-01-05T11:51:58.013Z,56.12
2024-01-05T11:54:01.211Z,56.22
2024-01-05T11:56:09.024Z,56.55
2024-01-05T11:58:18.421Z,56.51
2024-01-05T12:00:21.441Z,56.61
2024-01-05T12:02:24.394Z,56.67
2024-01-05T12:04:27.828Z,56.77
2024-01-05T12:06:30.788Z,56.94
2024-01-05T12:08:33.123Z,56.77
2024-01-05T12:10:36.824Z,56.86
2024-01-05T12:12:39.821Z,56.95
2024-01-05T12:14:44.929Z,56.92
2024-01-05T12:16:48.325Z,57.00
2024-01-05T12:18:53.762Z,57.49
2024-01-05T12:20:57.064Z,57.17
2024-01-05T12:22:59.921Z,57.33
2024-01-05T12:25:02.778Z,57.25
2024-01-05T12:27:06.663Z,57.47
2024-01-05T12:29:10.127Z,57.59
2024-01-05T12:31:14.882Z,57.82
2024-01-05T12:33:17.886Z,57.46
2024-01-05T12:35:21.363Z,57.68
2024-01-05T12:37:25.621Z,57.85
2024-01-05T12:39:27.466Z,57.81
2024-01-05T12:41:30.416Z,57.93
2024-01-05T12:43:33.810Z,57.96
2024-01-05T12:45:36.833Z,57.89
2024-01-05T12:47:42.009Z,57.89
2024-01-05T12:49:45.965Z,57.72
2024-01-05T12:51:49.771Z,57.92
2024-01-05T12:54:04.097Z,58.09
2024-01-05T12:56:09.201Z,57.84
2024-01-05T12:58:12.132Z,58.22
2024-01-05T13:00:14.515Z,57.97
2024-01-05T13:02:18.688Z,58.32
2024-01-05T13:04:36.471Z,58.16
2024-01-05T13:06:45.194Z,58.19
2024-01-05T13:08:48.360Z,58.10
2024-01-05T13:10:51.199Z,58.19
2024-01-05T13:12:53.338Z,58.51
2024-01-05T13:14:56.233Z,58.46
2024-01-05T13:17:01.649Z,58.15
2024-01-05T13:19:06.922Z,58.36
2024-01-05T13:21:11.583Z,58.07
2024-01-05T13:23:17.589Z,58.35
2024-01-05T13:25:22.279Z,58.32
2024-01-05T13:27:24.666Z,58.10
2024-01-05T13:29:27.711Z,58.10
2024-01-05T13:31:30.639Z,58.33
2024-01-05T13:33:33.050Z,58.22
2024-01-05T13:35:37.610Z,58.14
2024-01-05T13:37:41.956Z,58.14
2024-01-05T13:39:44.864Z,58.17
2024-01-05T13:41:47.877Z,58.18
2024-01-05T13:43:51.259Z,58.04
2024-01-05T13:45:55.216Z,57.89
2024-01-05T13:47:58.588Z,57.87
2024-01-05T13:50:00.857Z,58.14
2024-01-05T13:52:04.260Z,58.14
2024-01-05T13:54:08.552Z,58.05
2024-01-05T13:56:10.456Z,58.25
2024-01-05T13:58:13.560Z,58.06
2024-01-05T14:00:16.998Z,58.04
2024-01-05T14:02:20.645Z,57.94
2024-01-05T14:04:22.533Z,58.27
2024-01-05T14:06:26.133Z,58.11
2024-01-05T14:08:30.068Z,58.05
2024-01-05T14:10:34.457Z,58.15
2024-01-05T14:12:37.335Z,58.06
2024-01-05T14:14:39.444Z,58.34
2024-01-05T14:16:42.982Z,58.10
2024-01-05T14:18:45.021Z,58.55
2024-01-05T14:20:48.323Z,58.46
2024-01-05T14:22:52.228Z,58.35
2024-01-05T14:24:55.096Z,58.23
2024-01-05T14:26:59.589Z,58.18
2024-01-05T14:29:02.510Z,58.38
2024-01-05T14:31:04.966Z,58.68
2024-01-05T14:33:08.775Z,58.28
2024-01-05T14:35:11.870Z,58.25
2024-01-05T14:37:14.873Z,58.34
2024-01-05T14:39:17.875Z,58.59
2024-01-05T14:41:19.987Z,58.41
2024-01-05T14:43:24.232Z,58.32
2024-01-05T14:45:27.448Z,58.47
2024-01-05T14:47:30.624Z,58.48
2024-01-05T14:49:33.783Z,58.32
2024-01-05T14:51:37.269Z,58.41
2024-01-05T14:53:40.552Z,58.68
2024-01-05T14:55:45.287Z,58.39
2024-01-05T14:57:48.782Z,58.44
2024-01-05T14:59:53.945Z,58.81
2024-01-05T15:01:58.758Z,58.72
2024-01-05T15:04:02.086Z,58.84
2024-01-05T15:06:06.090Z,58.88
2024-01-05T15:08:08.984Z,58.77
2024-01-05T15:10:13.519Z,58.89
2024-01-05T15:12:17.277Z,59.01
2024-01-05T15:14:19.183Z,58.78
2024-01-05T15:16:23.717Z,59.06
2024-01-05T15:18:27.532Z,58.64
2024-01-05T15:20:30.645Z,58.75
2024-01-05T15:22:34.315Z,58.92
2024-01-05T15:24:39.995Z,58.96
2024-01-05T15:26:46.065Z,58.47
2024-01-05T15:28:48.959Z,58.52
2024-01-05T15:30:51.906Z,58.93
2024-01-05T15:32:56.547Z,58.84
2024-01-05T15:35:00.303Z,58.51
2024-01-05T15:37:03.646Z,58.75
2024-01-05T15:39:07.046Z,58.68
2024-01-05T15:41:10.153Z,58.97
2024-01-05T15:43:13.257Z,58.58
2024-01-05T15:45:15.429Z,58.81
2024-01-05T15:47:20.749Z,58.58
2024-01-05T15:49:25.514Z,58.85
2024-01-05T15:51:31.010Z,58.54
2024-01-05T15:53:34.874Z,58.84
2024-01-05T15:55:41.208Z,58.46
2024-01-05T15:57:47.830Z,58.53
2024-01-05T15:59:51.028Z,58.83
2024-01-05T16:01:53.948Z,58.61
2024-01-05T16:03:57.864Z,58.81
2024-01-05T16:06:02.541Z,58.54
2024-01-05T16:08:06.196Z,58.59
2024-01-05T16:10:10.462Z,58.80
2024-01-05T16:12:13.458Z,58.80
2024-01-05T16:14:18.224Z,58.54
2024-01-05T16:16:25.298Z,58.61
2024-01-05T16:18:28.182Z,58.79
2024-01-05T16:20:31.107Z,58.65
2024-01-05T16:22:35.324Z,58.63
2024-01-05T16:24:38.470Z,58.81
2024-01-05T16:26:41.583Z,58.47
2024-01-05T16:28:44.461Z,58.62
2024-01-05T16:30:48.874Z,58.39
2024-01-05T16:32:51.788Z,58.40
2024-01-05T16:34:54.845Z,58.41
2024-01-05T16:36:57.848Z,58.44
2024-01-05T16:39:01.730Z,58.84
2024-01-05T16:41:07.791Z,58.64
2024-01-05T16:43:09.886Z,58.90
2024-01-05T16:45:13.579Z,58.69
2024-01-05T16:47:16.514Z,58.85
2024-01-05T16:49:19.771Z,58.62
2024-01-05T16:51:23.891Z,58.73
2024-01-05T16:53:28.843Z,58.86
2024-01-05T16:55:33.106Z,59.04
2024-01-05T16:57:36.092Z,58.92
2024-01-05T16:59:38.307Z,59.21
2024-01-05T17:01:41.843Z,59.42
2024-01-05T17:03:46.402Z,59.07
2024-01-05T17:05:49.480Z,59.17
2024-01-05T17:07:52.476Z,59.46
2024-01-05T17:09:55.469Z,59.30
2024-01-05T17:12:00.342Z,59.62
2024-01-05T17:14:03.867Z,59.44
2024-01-05T17:16:10.173Z,59.37
2024-01-05T17:18:13.456Z,59.63
2024-01-05T17:20:24.036Z,59.75
2024-01-05T17:22:28.450Z,59.80
2024-01-05T17:24:31.334Z,59.44
2024-01-05T17:26:39.538Z,59.44
2024-01-05T17:28:44.097Z,59.85
2024-01-05T17:30:48.180Z,59.82
2024-01-05T17:32:51.104Z,59.95
2024-01-05T17:34:54.050Z,59.65
2024-01-05T17:36:57.271Z,59.75
2024-01-05T17:38:59.591Z,60.04
2024-01-05T17:41:02.412Z,59.75
2024-01-05T17:43:06.837Z,59.75
2024-01-05T17:45:11.583Z,59.86
2024-01-05T17:47:15.092Z,60.02
2024-01-05T17:49:17.623Z,59.87
2024-01-05T17:51:20.682Z,60.04
2024-01-05T17:53:23.645Z,60.02
2024-01-05T17:55:26.793Z,59.82
2024-01-05T17:57:29.705Z,60.18
2024-01-05T17:59:32.929Z,60.01
2024-01-05T18:01:43.210Z,60.27
2024-01-05T18:03:46.504Z,59.94
2024-01-05T18:05:49.825Z,60.10
2024-01-05T18:07:54.470Z,60.20
2024-01-05T18:09:57.495Z,59.93
2024-01-05T18:12:00.327Z,60.18
2024-01-05T18:14:04.538Z,60.15
2024-01-05T18:16:08.905Z,60.11
2024-01-05T18:18:13.354Z,59.84
2024-01-05T18:20:15.375Z,60.29
2024-01-05T18:22:18.193Z,60.34
2024-01-05T18:24:21.999Z,59.87
2024-01-05T18:26:28.320Z,59.83
2024-01-05T18:28:31.232Z,59.86
2024-01-05T18:30:33.208Z,59.89
2024-01-05T18:32:36.168Z,59.97
2024-01-05T18:34:45.754Z,59.78
2024-01-05T18:36:48.834Z,59.74
2024-01-05T18:38:52.706Z,59.73
2024-01-05T18:40:56.422Z,59.66
2024-01-05T18:43:00.086Z,59.27
2024-01-05T18:45:02.084Z,59.27
2024-01-05T18:47:05.555Z,59.43
2024-01-05T18:49:09.063Z,59.05
2024-01-05T18:51:14.168Z,59.23
2024-01-05T18:53:17.245Z,59.14
2024-01-05T18:55:20.315Z,59.07
2024-01-05T18:57:23.484Z,59.13
2024-01-05T18:59:25.359Z,59.03
2024-01-05T19:01:28.385Z,59.29
2024-01-05T19:03:31.900Z,58.91
2024-01-05T19:05:34.872Z,59.20
2024-01-05T19:07:39.174Z,58.92
2024-01-05T19:09:42.034Z,58.76
2024-01-05T19:11:44.838Z,58.88
2024-01-05T19:13:47.824Z,58.92
2024-01-05T19:15:51.622Z,58.94
2024-01-05T19:17:54.692Z,59.31
2024-01-05T19:19:57.923Z,59.28
2024-01-05T19:22:00.826Z,59.13
2024-01-05T19:24:05.326Z,59.22
2024-01-05T19:26:08.624Z,59.18
2024-01-05T19:28:10.819Z,59.15
2024-01-05T19:30:14.724Z,59.16
2024-01-05T19:32:17.641Z,59.33
2024-01-05T19:34:20.581Z,59.56
2024-01-05T19:36:23.530Z,59.28
2024-01-05T19:38:26.521Z,59.63
2024-01-05T19:40:32.734Z,59.59
2024-01-05T19:42:36.727Z,59.50
2024-01-05T19:44:39.672Z,59.48
2024-01-05T19:46:42.538Z,59.62
2024-01-05T19:48:45.815Z,59.72
2024-01-05T19:50:49.123Z,59.50
2024-01-05T19:52:52.201Z,59.71
2024-01-05T19:54:55.966Z,59.78
2024-01-05T19:57:00.379Z,59.60
2024-01-05T19:59:02.167Z,59.82
2024-01-05T20:01:05.861Z,59.60
2024-01-05T20:03:09.653Z,59.62
2024-01-05T20:05:12.633Z,59.65
2024-01-05T20:07:17.052Z,59.61
2024-01-05T20:09:20.586Z,59.70
2024-01-05T20:11:23.467Z,59.95
2024-01-05T20:13:28.362Z,59.80
2024-01-05T20:15:31.878Z,59.75
2024-01-05T20:17:34.919Z,60.19
2024-01-05T20:19:38.558Z,59.87
2024-01-05T20:21:41.568Z,60.16
2024-01-05T20:23:44.666Z,59.94
2024-01-05T20:25:47.691Z,60.22
2024-01-05T20:27:50.584Z,60.27
2024-01-05T20:29:54.005Z,60.01
2024-01-05T20:31:57.259Z,60.03
2024-01-05T20:34:00.930Z,60.35
2024-01-05T20:36:04.960Z,60.36
2024-01-05T20:38:07.800Z,60.28
2024-01-05T20:40:11.377Z,60.55
2024-01-05T20:42:14.384Z,60.41
2024-01-05T20:44:18.407Z,60.63
2024-01-05T20:46:23.864Z,60.55
2024-01-05T20:48:27.071Z,60.35
2024-01-05T20:50:28.909Z,60.53
2024-01-05T20:52:34.298Z,60.43
2024-01-05T20:54:36.202Z,60.81
2024-01-05T20:56:39.113Z,60.68
2024-01-05T20:58:45.335Z,60.74
2024-01-05T21:00:50.992Z,60.99
2024-01-05T21:02:55.179Z,60.78
2024-01-05T21:04:57.237Z,60.84
2024-01-05T21:07:01.250Z,60.91
2024-01-05T21:09:06.157Z,60.80
2024-01-05T21:11:08.982Z,61.12
2024-01-05T21:13:11.996Z,61.25
2024-01-05T21:15:14.963Z,60.95
2024-01-05T21:17:17.918Z,61.37
2024-01-05T21:19:22.669Z,61.20
2024-01-05T21:21:28.715Z,61.35
2024-01-05T21:23:31.631Z,61.28
2024-01-05T21:25:34.671Z,61.50
2024-01-05T21:27:37.845Z,61.09
2024-01-05T21:29:42.887Z,61.26
2024-01-05T21:31:48.419Z,61.05
2024-01-05T21:33:51.449Z,61.15
2024-01-05T21:35:55.770Z,61.46
2024-01-05T21:37:58.933Z,61.55
2024-01-05T21:40:01.764Z,61.16
2024-01-05T21:42:06.144Z,61.19
2024-01-05T21:44:09.202Z,61.62
2024-01-05T21:46:12.940Z,61.22
2024-01-05T21:48:15.863Z,61.32
2024-01-05T21:50:18.799Z,61.59
2024-01-05T21:52:23.010Z,61.26
2024-01-05T21:54:27.133Z,61.28
2024-01-05T21:56:30.375Z,61.39
2024-01-05T21:58:33.315Z,61.51
2024-01-05T22:00:36.251Z,61.27
2024-01-05T22:02:39.140Z,61.45
2024-01-05T22:04:41.915Z,61.34
2024-01-05T22:06:45.064Z,61.10
2024-01-05T22:08:50.791Z,61.36
2024-01-05T22:10:53.788Z,61.51
2024-01-05T22:12:58.810Z,61.39
2024-01-05T22:15:02.256Z,61.34
2024-01-05T22:17:05.467Z,61.56
2024-01-05T22:19:07.881Z,61.20
2024-01-05T22:21:12.366Z,61.16
2024-01-05T22:23:15.563Z,61.24
2024-01-05T22:25:19.751Z,61.11
2024-01-05T22:27:23.967Z,61.32
2024-01-05T22:29:27.313Z,61.34
2024-01-05T22:31:31.516Z,61.14
2024-01-05T22:33:34.597Z,61.37
2024-01-05T22:35:38.896Z,61.14
2024-01-05T22:37:42.054Z,61.48
2024-01-05T22:39:44.953Z,61.35
2024-01-05T22:41:49.484Z,61.40
2024-01-05T22:43:53.418Z,61.26
2024-01-05T22:45:56.390Z,61.39
2024-01-05T22:47:59.616Z,61.33
2024-01-05T22:50:02.761Z,61.37
2024-01-05T22:52:07.561Z,61.58
2024-01-05T22:54:10.421Z,61.15
2024-01-05T22:56:13.585Z,61.27
2024-01-05T22:58:16.819Z,61.47
2024-01-05T23:00:22.472Z,61.34
2024-01-05T23:02:26.312Z,61.24
2024-01-05T23:04:29.352Z,61.28
2024-01-05T23:06:32.370Z,61.67
2024-01-05T23:08:35.299Z,61.60
2024-01-05T23:10:38.141Z,61.47
2024-01-05T23:12:41.040Z,61.71
2024-01-05T23:14:45.263Z,61.46
2024-01-05T23:16:50.129Z,61.51
2024-01-05T23:18:54.022Z,61.59
2024-01-05T23:20:57.846Z,61.11
2024-01-05T23:23:00.786Z,61.29
2024-01-05T23:25:03.491Z,61.40
2024-01-05T23:27:06.690Z,61.20
2024-01-05T23:29:11.178Z,60.93
2024-01-05T23:31:15.480Z,60.96
2024-01-05T23:33:17.481Z,61.27
2024-01-05T23:35:20.527Z,61.03
2024-01-05T23:37:23.842Z,61.16
2024-01-05T23:39:26.701Z,60.76
2024-01-05T23:41:30.525Z,60.83
2024-01-05T23:43:33.056Z,60.65
2024-01-05T23:45:35.984Z,61.04
2024-01-05T23:47:40.296Z,60.97
2024-01-05T23:49:43.559Z,60.61
2024-01-05T23:51:46.589Z,60.58
2024-01-05T23:53:50.330Z,60.75
2024-01-05T23:55:53.256Z,60.43
2024-01-05T23:57:56.124Z,60.42
2024-01-05T23:59:59.499Z,60.69
